Aérodrome :
LOGIN :

S'inscrire | Disclaimer

   EN    FR    IT 

 










Légende :    VFR   VFR Marginal   IFR   IFR Intensif   IFR Très Intensif
Visi : 
Plafond : 
>= 8 km
>= 3000ft
5 à 8 km
1000 à 3000 ft
1500m à 5 km
500 à 1000 ft
800 à 1500m
200 à 500 ft
< 800m
< 200 ft
Symboles :   Orages  Brouillard  Fortes neiges  Fortes précipitations  Vent > 20 kt
SIGMETs :   Divers  Orages  Givrage  Turbulence  Onde Orograph.  Cendres Volcan.






- Altitude de l'aérodrome : 160 ft
- Code IATA : FMO


EDDG - Münster Osnabrück Int.

DERNIER METAR :
  • 281420Z 14004KT 090V190 9999 FEW029 17/10 Q1021 NOSIG

METARs EXPIRÉS :
  • 281350Z 15006KT 130V190 9999 FEW031 17/11 Q1022 NOSIG
  • 281320Z 18005KT 130V270 9999 FEW031 17/10 Q1022 NOSIG
  • 281250Z 18005KT 130V220 9999 SCT027 17/10 Q1022 NOSIG
  • 281220Z 17005KT 120V230 9999 SCT026 17/11 Q1022 NOSIG
  • 281150Z 22007KT 160V250 9999 FEW025 17/10 Q1022 NOSIG

TAF TAF EDDG
Valide du 28 à 12h jusqu'au 29 à 12h UTC


281100Z 2812/2912 20006KT 9999 FEW030
BECMG 2815/2818 12003KT
BECMG 2908/2911 20010KT
TEMPO 2908/2911 RA
TEMPO 2911/2912 22015G25KT SHRA BKN025CB



MET'MAP, la Météo Aéronautique d'un coup d'oeil ! - Copyright ORBIFLY Décembre 2007 - Disclaimer

ORBIFLY MET'MAP TEAM :

Programmation & Développement : Alexandra Zaïnal
Sur une idée originale de : Baudouin d'Aumeries
Assistance à la programmation : Marc-Olivier Méhu
Soutien technique & logistique : Manuel Goepfert

Contact : metmap@orbifly.com




SOURCES & CREDITS :

   NOAA